sensor_id;sensor_type;location;lat;lon;timestamp;pressure;altitude;pressure_sealevel;temperature;humidity
39177;BME280;24904;52.208;21.192;2023-01-15T00:04:23;99971.17;;;5.37;73.09
39177;BME280;24904;52.208;21.192;2023-01-15T00:09:26;99960.86;;;5.39;72.99
39177;BME280;24904;52.208;21.192;2023-01-15T00:14:29;99950.45;;;5.43;72.68
39177;BME280;24904;52.208;21.192;2023-01-15T00:19:33;99938.81;;;5.44;72.57
39177;BME280;24904;52.208;21.192;2023-01-15T00:24:36;99927.55;;;5.44;72.40
39177;BME280;24904;52.208;21.192;2023-01-15T00:29:57;99911.93;;;5.45;72.28
39177;BME280;24904;52.208;21.192;2023-01-15T00:35:01;99899.23;;;5.41;72.04
39177;BME280;24904;52.208;21.192;2023-01-15T00:40:06;99887.66;;;5.39;72.44
39177;BME280;24904;52.208;21.192;2023-01-15T00:45:10;99880.68;;;5.39;71.94
39177;BME280;24904;52.208;21.192;2023-01-15T00:50:15;99885.95;;;5.38;72.16
39177;BME280;24904;52.208;21.192;2023-01-15T00:55:18;99875.63;;;5.36;72.44
39177;BME280;24904;52.208;21.192;2023-01-15T01:00:21;99865.64;;;5.32;71.97
39177;BME280;24904;52.208;21.192;2023-01-15T01:05:24;99860.33;;;5.27;72.01
39177;BME280;24904;52.208;21.192;2023-01-15T01:10:28;99847.84;;;5.29;72.08
39177;BME280;24904;52.208;21.192;2023-01-15T01:15:33;99848.41;;;5.30;71.94
39177;BME280;24904;52.208;21.192;2023-01-15T01:20:37;99840.79;;;5.26;71.81
39177;BME280;24904;52.208;21.192;2023-01-15T01:25:41;99838.19;;;5.25;71.84
39177;BME280;24904;52.208;21.192;2023-01-15T01:30:44;99830.63;;;5.21;71.64
39177;BME280;24904;52.208;21.192;2023-01-15T01:35:48;99832.09;;;5.23;71.65
39177;BME280;24904;52.208;21.192;2023-01-15T01:40:52;99828.75;;;5.24;71.49
39177;BME280;24904;52.208;21.192;2023-01-15T01:45:55;99822.94;;;5.24;71.60
39177;BME280;24904;52.208;21.192;2023-01-15T01:51:02;99820.77;;;5.25;71.25
39177;BME280;24904;52.208;21.192;2023-01-15T01:56:08;99822.14;;;5.21;71.22
39177;BME280;24904;52.208;21.192;2023-01-15T02:01:13;99799.27;;;5.14;71.36
39177;BME280;24904;52.208;21.192;2023-01-15T02:06:16;99790.34;;;5.08;71.35
39177;BME280;24904;52.208;21.192;2023-01-15T02:11:21;99774.13;;;5.03;71.22
39177;BME280;24904;52.208;21.192;2023-01-15T02:16:27;99753.66;;;5.01;71.36
39177;BME280;24904;52.208;21.192;2023-01-15T02:21:44;99750.31;;;4.98;71.55
39177;BME280;24904;52.208;21.192;2023-01-15T02:27:04;99752.52;;;4.95;71.15
39177;BME280;24904;52.208;21.192;2023-01-15T02:32:18;99751.75;;;4.90;71.24
39177;BME280;24904;52.208;21.192;2023-01-15T02:37:25;99755.29;;;4.88;71.08
39177;BME280;24904;52.208;21.192;2023-01-15T02:42:30;99758.58;;;4.90;71.32
39177;BME280;24904;52.208;21.192;2023-01-15T02:47:36;99758.65;;;4.89;71.11
39177;BME280;24904;52.208;21.192;2023-01-15T02:52:45;99751.47;;;4.85;71.09
39177;BME280;24904;52.208;21.192;2023-01-15T02:57:52;99741.48;;;4.82;70.80
39177;BME280;24904;52.208;21.192;2023-01-15T03:03:00;99727.55;;;4.81;71.38
39177;BME280;24904;52.208;21.192;2023-01-15T03:08:06;99694.78;;;4.77;70.92
39177;BME280;24904;52.208;21.192;2023-01-15T03:13:15;99676.52;;;4.77;70.99
39177;BME280;24904;52.208;21.192;2023-01-15T03:18:28;99676.56;;;4.78;71.20
39177;BME280;24904;52.208;21.192;2023-01-15T03:23:37;99657.47;;;4.79;71.17
39177;BME280;24904;52.208;21.192;2023-01-15T03:28:43;99647.64;;;4.78;70.83
39177;BME280;24904;52.208;21.192;2023-01-15T03:33:47;99656.20;;;4.78;70.68
39177;BME280;24904;52.208;21.192;2023-01-15T03:38:53;99667.11;;;4.83;71.09
39177;BME280;24904;52.208;21.192;2023-01-15T03:44:20;99655.57;;;4.84;70.60
39177;BME280;24904;52.208;21.192;2023-01-15T03:49:36;99629.33;;;4.86;70.49
39177;BME280;24904;52.208;21.192;2023-01-15T03:54:51;99622.89;;;4.90;70.64
39177;BME280;24904;52.208;21.192;2023-01-15T03:59:58;99618.13;;;4.92;70.41
39177;BME280;24904;52.208;21.192;2023-01-15T04:05:06;99620.04;;;4.91;70.15
39177;BME280;24904;52.208;21.192;2023-01-15T04:10:11;99611.24;;;4.91;69.91
39177;BME280;24904;52.208;21.192;2023-01-15T04:15:14;99590.61;;;4.92;70.15
39177;BME280;24904;52.208;21.192;2023-01-15T04:20:19;99591.90;;;4.91;69.77
39177;BME280;24904;52.208;21.192;2023-01-15T04:25:22;99584.23;;;4.92;69.77
39177;BME280;24904;52.208;21.192;2023-01-15T04:30:26;99588.45;;;4.93;69.83
39177;BME280;24904;52.208;21.192;2023-01-15T04:35:29;99569.53;;;4.95;69.70
39177;BME280;24904;52.208;21.192;2023-01-15T04:40:33;99562.45;;;4.98;69.74
39177;BME280;24904;52.208;21.192;2023-01-15T04:45:54;99534.52;;;4.97;69.66
39177;BME280;24904;52.208;21.192;2023-01-15T04:50:57;99532.23;;;4.99;69.22
39177;BME280;24904;52.208;21.192;2023-01-15T04:56:05;99529.71;;;4.97;69.37
39177;BME280;24904;52.208;21.192;2023-01-15T05:01:11;99527.01;;;4.98;69.21
39177;BME280;24904;52.208;21.192;2023-01-15T05:06:15;99508.36;;;4.99;69.18
39177;BME280;24904;52.208;21.192;2023-01-15T05:11:19;99510.27;;;5.01;69.26
39177;BME280;24904;52.208;21.192;2023-01-15T05:16:25;99502.15;;;5.00;69.13
39177;BME280;24904;52.208;21.192;2023-01-15T05:21:30;99499.59;;;5.00;69.07
39177;BME280;24904;52.208;21.192;2023-01-15T05:26:34;99502.13;;;4.98;68.93
39177;BME280;24904;52.208;21.192;2023-01-15T05:31:37;99492.25;;;5.02;68.95
39177;BME280;24904;52.208;21.192;2023-01-15T05:36:41;99480.48;;;5.05;68.95
39177;BME280;24904;52.208;21.192;2023-01-15T05:41:44;99483.95;;;5.07;68.75
39177;BME280;24904;52.208;21.192;2023-01-15T05:46:56;99492.82;;;5.11;68.65
39177;BME280;24904;52.208;21.192;2023-01-15T05:52:00;99480.45;;;5.16;68.65
39177;BME280;24904;52.208;21.192;2023-01-15T05:57:04;99486.50;;;5.22;68.50
39177;BME280;24904;52.208;21.192;2023-01-15T06:02:07;99485.78;;;5.26;68.54
39177;BME280;24904;52.208;21.192;2023-01-15T06:07:10;99474.99;;;5.27;68.14
39177;BME280;24904;52.208;21.192;2023-01-15T06:12:13;99463.20;;;5.29;68.17
39177;BME280;24904;52.208;21.192;2023-01-15T06:17:17;99459.74;;;5.31;67.92
39177;BME280;24904;52.208;21.192;2023-01-15T06:22:20;99446.69;;;5.36;67.86
39177;BME280;24904;52.208;21.192;2023-01-15T06:27:23;99443.73;;;5.41;68.08
39177;BME280;24904;52.208;21.192;2023-01-15T06:32:27;99427.52;;;5.44;67.76
39177;BME280;24904;52.208;21.192;2023-01-15T06:37:30;99426.20;;;5.44;67.76
39177;BME280;24904;52.208;21.192;2023-01-15T06:42:33;99422.71;;;5.45;67.59
39177;BME280;24904;52.208;21.192;2023-01-15T06:47:55;99425.77;;;5.47;67.29
39177;BME280;24904;52.208;21.192;2023-01-15T06:52:58;99425.19;;;5.49;67.37
39177;BME280;24904;52.208;21.192;2023-01-15T06:58:03;99429.88;;;5.54;67.51
39177;BME280;24904;52.208;21.192;2023-01-15T07:03:06;99413.77;;;5.55;67.61
39177;BME280;24904;52.208;21.192;2023-01-15T07:08:09;99401.41;;;5.50;67.60
39177;BME280;24904;52.208;21.192;2023-01-15T07:13:12;99406.09;;;5.50;68.02
39177;BME280;24904;52.208;21.192;2023-01-15T07:18:16;99408.30;;;5.52;68.24
39177;BME280;24904;52.208;21.192;2023-01-15T07:23:19;99400.01;;;5.55;68.43
39177;BME280;24904;52.208;21.192;2023-01-15T07:28:22;99404.23;;;5.51;69.04
39177;BME280;24904;52.208;21.192;2023-01-15T07:33:26;99403.99;;;5.46;69.60
39177;BME280;24904;52.208;21.192;2023-01-15T07:38:29;99404.63;;;5.42;70.22
39177;BME280;24904;52.208;21.192;2023-01-15T07:43:32;99392.18;;;5.37;70.49
39177;BME280;24904;52.208;21.192;2023-01-15T07:48:53;99389.61;;;5.33;70.86
39177;BME280;24904;52.208;21.192;2023-01-15T07:54:14;99381.92;;;5.33;71.53
39177;BME280;24904;52.208;21.192;2023-01-15T07:59:18;99379.65;;;5.32;71.50
39177;BME280;24904;52.208;21.192;2023-01-15T08:04:21;99379.15;;;5.30;71.67
39177;BME280;24904;52.208;21.192;2023-01-15T08:09:26;99378.48;;;5.31;71.86
39177;BME280;24904;52.208;21.192;2023-01-15T08:14:29;99377.29;;;5.34;71.68
39177;BME280;24904;52.208;21.192;2023-01-15T08:19:50;99374.92;;;5.37;71.88
39177;BME280;24904;52.208;21.192;2023-01-15T08:24:53;99370.91;;;5.39;72.07
39177;BME280;24904;52.208;21.192;2023-01-15T08:29:56;99366.22;;;5.44;71.99
39177;BME280;24904;52.208;21.192;2023-01-15T08:34:59;99363.02;;;5.52;72.04
39177;BME280;24904;52.208;21.192;2023-01-15T08:40:03;99364.15;;;5.55;71.83
39177;BME280;24904;52.208;21.192;2023-01-15T08:45:08;99362.73;;;5.60;71.73
39177;BME280;24904;52.208;21.192;2023-01-15T08:50:11;99358.11;;;5.68;71.88
39177;BME280;24904;52.208;21.192;2023-01-15T08:55:15;99349.78;;;5.74;71.85
39177;BME280;24904;52.208;21.192;2023-01-15T09:00:19;99349.81;;;5.81;71.88
39177;BME280;24904;52.208;21.192;2023-01-15T09:05:23;99352.15;;;5.81;71.77
39177;BME280;24904;52.208;21.192;2023-01-15T09:10:26;99351.89;;;5.86;71.95
39177;BME280;24904;52.208;21.192;2023-01-15T09:15:31;99348.58;;;5.88;72.00
39177;BME280;24904;52.208;21.192;2023-01-15T09:20:35;99339.64;;;5.91;71.95
39177;BME280;24904;52.208;21.192;2023-01-15T09:25:38;99342.34;;;5.95;72.33
39177;BME280;24904;52.208;21.192;2023-01-15T09:30:41;99337.55;;;6.01;72.50
39177;BME280;24904;52.208;21.192;2023-01-15T09:35:44;99330.14;;;5.99;72.79
39177;BME280;24904;52.208;21.192;2023-01-15T09:40:49;99326.38;;;5.96;73.05
39177;BME280;24904;52.208;21.192;2023-01-15T09:45:55;99321.61;;;5.94;73.42
39177;BME280;24904;52.208;21.192;2023-01-15T09:51:11;99326.10;;;5.88;73.62
39177;BME280;24904;52.208;21.192;2023-01-15T09:56:21;99322.53;;;5.84;74.20
39177;BME280;24904;52.208;21.192;2023-01-15T10:01:28;99316.45;;;5.83;74.54
39177;BME280;24904;52.208;21.192;2023-01-15T10:06:34;99311.23;;;5.84;74.90
39177;BME280;24904;52.208;21.192;2023-01-15T10:11:44;99299.77;;;5.81;74.99
39177;BME280;24904;52.208;21.192;2023-01-15T10:17:18;99296.27;;;5.80;75.33
39177;BME280;24904;52.208;21.192;2023-01-15T10:22:34;99294.39;;;5.80;75.53
39177;BME280;24904;52.208;21.192;2023-01-15T10:27:43;99290.48;;;5.78;75.79
39177;BME280;24904;52.208;21.192;2023-01-15T10:32:51;99285.60;;;5.80;76.08
39177;BME280;24904;52.208;21.192;2023-01-15T10:38:04;99279.02;;;5.78;76.27
39177;BME280;24904;52.208;21.192;2023-01-15T10:43:16;99276.17;;;5.80;76.26
39177;BME280;24904;52.208;21.192;2023-01-15T10:48:29;99267.42;;;5.83;76.37
39177;BME280;24904;52.208;21.192;2023-01-15T10:53:39;99258.34;;;5.79;76.30
39177;BME280;24904;52.208;21.192;2023-01-15T10:58:47;99251.91;;;5.76;77.01
39177;BME280;24904;52.208;21.192;2023-01-15T11:03:51;99250.31;;;5.78;76.95
39177;BME280;24904;52.208;21.192;2023-01-15T11:08:57;99247.92;;;5.76;77.08
39177;BME280;24904;52.208;21.192;2023-01-15T11:14:00;99244.16;;;5.72;77.39
39177;BME280;24904;52.208;21.192;2023-01-15T11:19:26;99239.33;;;5.71;77.49
39177;BME280;24904;52.208;21.192;2023-01-15T11:24:46;99229.59;;;5.70;77.44
39177;BME280;24904;52.208;21.192;2023-01-15T11:29:56;99229.11;;;5.69;77.83
39177;BME280;24904;52.208;21.192;2023-01-15T11:35:01;99218.62;;;5.70;78.09
39177;BME280;24904;52.208;21.192;2023-01-15T11:40:14;99216.77;;;5.72;78.13
39177;BME280;24904;52.208;21.192;2023-01-15T11:45:20;99214.73;;;5.70;78.23
39177;BME280;24904;52.208;21.192;2023-01-15T11:50:50;99210.20;;;5.69;78.49
39177;BME280;24904;52.208;21.192;2023-01-15T11:55:57;99208.14;;;5.72;78.42
39177;BME280;24904;52.208;21.192;2023-01-15T12:01:02;99205.09;;;5.72;78.58
39177;BME280;24904;52.208;21.192;2023-01-15T12:06:08;99200.59;;;5.72;78.87
39177;BME280;24904;52.208;21.192;2023-01-15T12:11:27;99195.16;;;5.75;78.68
39177;BME280;24904;52.208;21.192;2023-01-15T12:16:36;99191.54;;;5.77;78.76
39177;BME280;24904;52.208;21.192;2023-01-15T12:22:07;99187.05;;;5.79;78.80
39177;BME280;24904;52.208;21.192;2023-01-15T12:32:58;99189.96;;;5.82;78.91
39177;BME280;24904;52.208;21.192;2023-01-15T12:38:11;99198.98;;;5.81;78.98
39177;BME280;24904;52.208;21.192;2023-01-15T12:43:22;99193.87;;;5.83;79.06
39177;BME280;24904;52.208;21.192;2023-01-15T12:48:47;99193.40;;;5.82;79.38
39177;BME280;24904;52.208;21.192;2023-01-15T12:53:56;99201.45;;;5.87;79.16
39177;BME280;24904;52.208;21.192;2023-01-15T12:59:04;99195.47;;;5.87;78.94
39177;BME280;24904;52.208;21.192;2023-01-15T13:04:15;99199.62;;;5.93;79.33
39177;BME280;24904;52.208;21.192;2023-01-15T13:09:30;99200.73;;;5.97;79.37
39177;BME280;24904;52.208;21.192;2023-01-15T13:14:36;99202.94;;;5.99;79.33
39177;BME280;24904;52.208;21.192;2023-01-15T13:19:46;99204.21;;;6.02;79.63
39177;BME280;24904;52.208;21.192;2023-01-15T13:25:23;99200.91;;;6.05;79.43
39177;BME280;24904;52.208;21.192;2023-01-15T13:30:42;99204.83;;;6.06;79.15
39177;BME280;24904;52.208;21.192;2023-01-15T13:36:00;99201.11;;;6.10;79.32
39177;BME280;24904;52.208;21.192;2023-01-15T13:41:07;99197.66;;;6.15;79.52
39177;BME280;24904;52.208;21.192;2023-01-15T13:46:12;99199.70;;;6.17;79.31
39177;BME280;24904;52.208;21.192;2023-01-15T13:51:26;99203.92;;;6.19;79.21
39177;BME280;24904;52.208;21.192;2023-01-15T13:56:32;99206.12;;;6.19;79.13
39177;BME280;24904;52.208;21.192;2023-01-15T14:01:42;99205.84;;;6.23;79.27
39177;BME280;24904;52.208;21.192;2023-01-15T14:06:46;99203.70;;;6.30;79.02
39177;BME280;24904;52.208;21.192;2023-01-15T14:12:02;99199.77;;;6.32;78.87
39177;BME280;24904;52.208;21.192;2023-01-15T14:17:19;99207.20;;;6.36;78.74
39177;BME280;24904;52.208;21.192;2023-01-15T14:22:47;99209.73;;;6.39;78.66
39177;BME280;24904;52.208;21.192;2023-01-15T14:28:13;99214.25;;;6.40;78.67
39177;BME280;24904;52.208;21.192;2023-01-15T14:33:28;99219.36;;;6.46;78.53
39177;BME280;24904;52.208;21.192;2023-01-15T14:38:34;99226.90;;;6.50;78.45
39177;BME280;24904;52.208;21.192;2023-01-15T14:43:37;99228.23;;;6.53;78.41
39177;BME280;24904;52.208;21.192;2023-01-15T14:48:43;99232.23;;;6.54;78.23
39177;BME280;24904;52.208;21.192;2023-01-15T14:53:48;99225.69;;;6.57;78.20
39177;BME280;24904;52.208;21.192;2023-01-15T14:58:57;99223.14;;;6.59;78.04
39177;BME280;24904;52.208;21.192;2023-01-15T15:04:11;99226.89;;;6.61;78.01
39177;BME280;24904;52.208;21.192;2023-01-15T15:16:18;99213.34;;;6.69;78.25
39177;BME280;24904;52.208;21.192;2023-01-15T15:21:29;99214.04;;;6.71;77.89
39177;BME280;24904;52.208;21.192;2023-01-15T15:26:37;99208.14;;;6.75;77.87
39177;BME280;24904;52.208;21.192;2023-01-15T15:31:45;99207.98;;;6.75;77.72
39177;BME280;24904;52.208;21.192;2023-01-15T15:36:52;99205.33;;;6.73;77.74
39177;BME280;24904;52.208;21.192;2023-01-15T15:41:59;99198.62;;;6.72;77.53
39177;BME280;24904;52.208;21.192;2023-01-15T15:47:24;99200.48;;;6.72;77.43
39177;BME280;24904;52.208;21.192;2023-01-15T15:52:49;99206.24;;;6.71;77.29
39177;BME280;24904;52.208;21.192;2023-01-15T15:57:57;99203.65;;;6.77;77.30
39177;BME280;24904;52.208;21.192;2023-01-15T16:03:06;99196.33;;;6.78;77.08
39177;BME280;24904;52.208;21.192;2023-01-15T16:08:22;99187.70;;;6.81;76.82
39177;BME280;24904;52.208;21.192;2023-01-15T16:13:31;99196.13;;;6.84;76.75
39177;BME280;24904;52.208;21.192;2023-01-15T16:18:41;99207.76;;;6.86;76.81
39177;BME280;24904;52.208;21.192;2023-01-15T16:23:57;99209.95;;;6.88;76.54
39177;BME280;24904;52.208;21.192;2023-01-15T16:29:12;99213.27;;;6.92;76.48
39177;BME280;24904;52.208;21.192;2023-01-15T16:34:22;99225.53;;;6.94;76.56
39177;BME280;24904;52.208;21.192;2023-01-15T16:39:31;99220.79;;;6.97;76.48
39177;BME280;24904;52.208;21.192;2023-01-15T16:44:41;99215.02;;;6.96;76.53
39177;BME280;24904;52.208;21.192;2023-01-15T16:49:50;99224.91;;;6.93;76.76
39177;BME280;24904;52.208;21.192;2023-01-15T16:54:55;99228.54;;;6.90;76.76
39177;BME280;24904;52.208;21.192;2023-01-15T17:00:10;99236.92;;;6.89;76.92
39177;BME280;24904;52.208;21.192;2023-01-15T17:05:31;99246.66;;;6.86;77.19
39177;BME280;24904;52.208;21.192;2023-01-15T17:10:36;99252.10;;;6.82;77.38
39177;BME280;24904;52.208;21.192;2023-01-15T17:15:42;99252.16;;;6.81;77.56
39177;BME280;24904;52.208;21.192;2023-01-15T17:20:47;99256.69;;;6.80;77.97
39177;BME280;24904;52.208;21.192;2023-01-15T17:25:52;99269.48;;;6.81;78.20
39177;BME280;24904;52.208;21.192;2023-01-15T17:31:02;99271.87;;;6.78;78.48
39177;BME280;24904;52.208;21.192;2023-01-15T17:36:09;99278.59;;;6.80;78.92
39177;BME280;24904;52.208;21.192;2023-01-15T17:41:15;99277.64;;;6.78;78.99
39177;BME280;24904;52.208;21.192;2023-01-15T17:46:20;99282.91;;;6.76;79.19
39177;BME280;24904;52.208;21.192;2023-01-15T17:51:26;99291.07;;;6.74;79.54
39177;BME280;24904;52.208;21.192;2023-01-15T17:56:32;99298.00;;;6.74;79.73
39177;BME280;24904;52.208;21.192;2023-01-15T18:01:55;99312.14;;;6.76;79.99
39177;BME280;24904;52.208;21.192;2023-01-15T18:07:21;99328.29;;;6.76;80.11
39177;BME280;24904;52.208;21.192;2023-01-15T18:12:27;99338.20;;;6.77;80.06
39177;BME280;24904;52.208;21.192;2023-01-15T18:17:33;99337.50;;;6.78;80.24
39177;BME280;24904;52.208;21.192;2023-01-15T18:22:38;99346.82;;;6.75;80.34
39177;BME280;24904;52.208;21.192;2023-01-15T18:27:43;99350.39;;;6.75;80.49
39177;BME280;24904;52.208;21.192;2023-01-15T18:32:50;99344.20;;;6.77;80.58
39177;BME280;24904;52.208;21.192;2023-01-15T18:37:55;99349.49;;;6.77;80.66
39177;BME280;24904;52.208;21.192;2023-01-15T18:43:00;99346.86;;;6.73;80.73
39177;BME280;24904;52.208;21.192;2023-01-15T18:48:23;99350.44;;;6.72;80.96
39177;BME280;24904;52.208;21.192;2023-01-15T18:53:28;99354.33;;;6.72;81.11
39177;BME280;24904;52.208;21.192;2023-01-15T18:58:33;99356.45;;;6.73;81.06
39177;BME280;24904;52.208;21.192;2023-01-15T19:03:38;99358.23;;;6.72;81.16
39177;BME280;24904;52.208;21.192;2023-01-15T19:08:43;99366.28;;;6.73;81.44
39177;BME280;24904;52.208;21.192;2023-01-15T19:21:39;99379.21;;;6.73;81.21
39177;BME280;24904;52.208;21.192;2023-01-15T19:26:45;99379.48;;;6.70;81.27
39177;BME280;24904;52.208;21.192;2023-01-15T19:31:50;99375.20;;;6.69;81.23
39177;BME280;24904;52.208;21.192;2023-01-15T19:36:55;99386.23;;;6.65;81.05
39177;BME280;24904;52.208;21.192;2023-01-15T19:42:01;99391.71;;;6.61;81.41
39177;BME280;24904;52.208;21.192;2023-01-15T19:47:27;99382.25;;;6.58;81.22
39177;BME280;24904;52.208;21.192;2023-01-15T19:52:53;99382.80;;;6.51;81.39
39177;BME280;24904;52.208;21.192;2023-01-15T19:57:59;99396.85;;;6.47;81.02
39177;BME280;24904;52.208;21.192;2023-01-15T20:03:05;99401.21;;;6.47;81.31
39177;BME280;24904;52.208;21.192;2023-01-15T20:08:12;99400.87;;;6.44;81.03
39177;BME280;24904;52.208;21.192;2023-01-15T20:13:21;99410.34;;;6.42;81.11
39177;BME280;24904;52.208;21.192;2023-01-15T20:18:44;99420.27;;;6.37;80.93
39177;BME280;24904;52.208;21.192;2023-01-15T20:23:51;99416.44;;;6.31;80.71
39177;BME280;24904;52.208;21.192;2023-01-15T20:28:56;99414.10;;;6.24;80.83
39177;BME280;24904;52.208;21.192;2023-01-15T20:34:02;99414.34;;;6.24;80.89
39177;BME280;24904;52.208;21.192;2023-01-15T20:39:07;99418.90;;;6.22;81.01
39177;BME280;24904;52.208;21.192;2023-01-15T20:44:12;99417.20;;;6.18;80.87
39177;BME280;24904;52.208;21.192;2023-01-15T20:49:34;99424.41;;;6.16;81.05
39177;BME280;24904;52.208;21.192;2023-01-15T20:54:39;99422.01;;;6.16;81.11
39177;BME280;24904;52.208;21.192;2023-01-15T20:59:45;99422.36;;;6.19;81.13
39177;BME280;24904;52.208;21.192;2023-01-15T21:04:50;99424.77;;;6.25;81.42
39177;BME280;24904;52.208;21.192;2023-01-15T21:09:55;99421.88;;;6.22;81.52
39177;BME280;24904;52.208;21.192;2023-01-15T21:15:00;99420.56;;;6.23;81.59
39177;BME280;24904;52.208;21.192;2023-01-15T21:20:07;99427.26;;;6.23;81.53
39177;BME280;24904;52.208;21.192;2023-01-15T21:25:14;99431.97;;;6.27;81.52
39177;BME280;24904;52.208;21.192;2023-01-15T21:30:19;99426.77;;;6.29;81.49
39177;BME280;24904;52.208;21.192;2023-01-15T21:35:28;99430.75;;;6.30;81.40
39177;BME280;24904;52.208;21.192;2023-01-15T21:40:33;99429.66;;;6.29;81.10
39177;BME280;24904;52.208;21.192;2023-01-15T21:45:39;99422.63;;;6.28;81.00
39177;BME280;24904;52.208;21.192;2023-01-15T21:50:44;99423.56;;;6.28;80.72
39177;BME280;24904;52.208;21.192;2023-01-15T21:55:52;99429.00;;;6.27;80.66
39177;BME280;24904;52.208;21.192;2023-01-15T22:00:57;99434.45;;;6.25;80.52
39177;BME280;24904;52.208;21.192;2023-01-15T22:06:04;99436.48;;;6.26;80.49
39177;BME280;24904;52.208;21.192;2023-01-15T22:11:10;99435.60;;;6.24;80.29
39177;BME280;24904;52.208;21.192;2023-01-15T22:16:16;99434.42;;;6.18;80.23
39177;BME280;24904;52.208;21.192;2023-01-15T22:21:21;99437.66;;;6.16;80.32
39177;BME280;24904;52.208;21.192;2023-01-15T22:26:26;99438.50;;;6.15;80.05
39177;BME280;24904;52.208;21.192;2023-01-15T22:31:33;99439.75;;;6.14;80.05
39177;BME280;24904;52.208;21.192;2023-01-15T22:36:38;99436.48;;;6.16;80.10
39177;BME280;24904;52.208;21.192;2023-01-15T22:41:43;99435.40;;;6.16;79.70
39177;BME280;24904;52.208;21.192;2023-01-15T22:47:06;99435.45;;;6.14;79.78
39177;BME280;24904;52.208;21.192;2023-01-15T22:52:11;99441.50;;;6.12;79.59
39177;BME280;24904;52.208;21.192;2023-01-15T22:57:16;99442.33;;;6.09;79.45
39177;BME280;24904;52.208;21.192;2023-01-15T23:02:22;99432.20;;;6.09;79.52
39177;BME280;24904;52.208;21.192;2023-01-15T23:07:40;99437.98;;;6.10;79.29
39177;BME280;24904;52.208;21.192;2023-01-15T23:12:46;99434.27;;;6.07;79.31
39177;BME280;24904;52.208;21.192;2023-01-15T23:17:52;99426.67;;;6.05;79.24
39177;BME280;24904;52.208;21.192;2023-01-15T23:22:57;99421.19;;;6.07;79.19
39177;BME280;24904;52.208;21.192;2023-01-15T23:28:02;99424.05;;;6.05;79.07
39177;BME280;24904;52.208;21.192;2023-01-15T23:33:07;99421.48;;;6.01;78.91
39177;BME280;24904;52.208;21.192;2023-01-15T23:38:12;99423.25;;;5.99;78.95
39177;BME280;24904;52.208;21.192;2023-01-15T23:43:18;99426.67;;;5.98;78.87
39177;BME280;24904;52.208;21.192;2023-01-15T23:48:40;99425.03;;;5.98;78.86
39177;BME280;24904;52.208;21.192;2023-01-15T23:53:45;99415.04;;;5.95;78.52
39177;BME280;24904;52.208;21.192;2023-01-15T23:58:51;99418.60;;;5.94;78.78
